createdAt,value
2018-05-01T00:00:11.227Z,99.90
2018-05-01T00:02:47.449Z,99.90
2018-05-01T00:05:22.192Z,99.90
2018-05-01T00:07:56.895Z,99.90
2018-05-01T00:10:31.665Z,99.90
2018-05-01T00:13:06.275Z,99.90
2018-05-01T00:15:40.974Z,99.90
2018-05-01T00:18:15.713Z,99.90
2018-05-01T00:20:50.353Z,99.90
2018-05-01T00:23:24.976Z,99.90
2018-05-01T00:25:59.954Z,99.90
2018-05-01T00:28:34.559Z,99.90
2018-05-01T00:31:03.493Z,99.90
2018-05-01T00:33:38.171Z,99.90
2018-05-01T00:36:13.600Z,99.90
2018-05-01T00:38:48.333Z,99.90
2018-05-01T00:41:22.887Z,99.90
2018-05-01T00:43:58.179Z,99.90
2018-05-01T00:46:32.727Z,99.90
2018-05-01T00:49:07.493Z,99.90
2018-05-01T00:51:36.629Z,99.90
2018-05-01T00:54:11.525Z,99.90
2018-05-01T00:56:46.990Z,99.90
2018-05-01T00:59:22.441Z,99.90
2018-05-01T01:01:57.952Z,99.90
2018-05-01T01:04:29.319Z,99.90
2018-05-01T01:07:04.163Z,99.90
2018-05-01T01:09:39.075Z,99.90
2018-05-01T01:12:13.814Z,99.90
2018-05-01T01:14:48.113Z,99.90
2018-05-01T01:17:22.732Z,99.90
2018-05-01T01:19:57.418Z,99.90
2018-05-01T01:22:32.815Z,99.90
2018-05-01T01:25:07.681Z,99.90
2018-05-01T01:27:42.294Z,99.90
2018-05-01T01:30:16.578Z,99.90
2018-05-01T01:32:53.819Z,99.90
2018-05-01T01:35:27.154Z,99.90
2018-05-01T01:38:00.516Z,99.90
2018-05-01T01:40:34.180Z,99.90
2018-05-01T01:43:02.138Z,99.90
2018-05-01T01:45:36.431Z,99.90
2018-05-01T01:48:10.638Z,99.90
2018-05-01T01:50:44.879Z,99.90
2018-05-01T01:53:18.390Z,99.90
2018-05-01T01:55:52.595Z,99.90
2018-05-01T01:58:26.895Z,99.90
2018-05-01T02:01:00.712Z,99.90
2018-05-01T02:03:28.462Z,99.90
2018-05-01T02:06:02.774Z,99.90
2018-05-01T02:08:36.541Z,99.90
2018-05-01T02:11:11.034Z,99.90
2018-05-01T02:13:45.288Z,99.90
2018-05-01T02:16:18.939Z,99.90
2018-05-01T02:18:52.517Z,99.90
2018-05-01T02:21:25.953Z,99.90
2018-05-01T02:24:00.237Z,99.90
2018-05-01T02:26:33.722Z,99.90
2018-05-01T02:29:08.259Z,99.90
2018-05-01T02:31:41.834Z,99.90
2018-05-01T02:34:19.542Z,99.90
2018-05-01T02:36:52.966Z,99.90
2018-05-01T02:39:26.483Z,99.90
2018-05-01T02:42:00.071Z,99.90
2018-05-01T02:44:33.632Z,99.90
2018-05-01T02:47:07.147Z,99.90
2018-05-01T02:49:41.074Z,99.90
2018-05-01T02:52:14.659Z,99.90
2018-05-01T02:54:48.153Z,99.90
2018-05-01T02:57:21.670Z,99.90
2018-05-01T02:59:55.116Z,99.90
2018-05-01T03:02:29.554Z,99.90
2018-05-01T03:05:03.771Z,99.90
2018-05-01T03:07:37.998Z,99.90
2018-05-01T03:10:08.339Z,99.90
2018-05-01T03:12:42.286Z,99.90
2018-05-01T03:15:15.839Z,99.90
2018-05-01T03:17:49.415Z,99.90
2018-05-01T03:20:23.291Z,99.90
2018-05-01T03:22:56.721Z,99.90
2018-05-01T03:25:30.942Z,99.90
2018-05-01T03:28:04.333Z,99.90
2018-05-01T03:30:37.698Z,99.90
2018-05-01T03:33:11.245Z,99.90
2018-05-01T03:35:44.631Z,99.90
2018-05-01T03:38:17.943Z,99.90
2018-05-01T03:40:46.065Z,99.90
2018-05-01T03:43:19.517Z,99.90
2018-05-01T03:45:53.749Z,99.90
2018-05-01T03:48:27.081Z,99.90
2018-05-01T03:50:55.112Z,99.90
2018-05-01T03:53:28.709Z,99.90
2018-05-01T03:56:03.036Z,99.90
2018-05-01T03:58:36.609Z,99.90
2018-05-01T04:01:15.395Z,99.90
2018-05-01T04:03:49.518Z,99.90
2018-05-01T04:06:22.998Z,99.90
2018-05-01T04:08:56.879Z,99.90
2018-05-01T04:11:31.143Z,99.90
2018-05-01T04:14:04.463Z,99.90
2018-05-01T04:16:38.028Z,99.90
2018-05-01T04:19:12.346Z,99.90
2018-05-01T04:21:46.942Z,99.90
2018-05-01T04:24:20.489Z,99.90
2018-05-01T04:26:54.118Z,99.90
2018-05-01T04:29:27.712Z,99.90
2018-05-01T04:32:01.198Z,99.90
2018-05-01T04:34:34.765Z,99.90
2018-05-01T04:37:02.714Z,99.90
2018-05-01T04:39:36.085Z,99.90
2018-05-01T04:42:10.462Z,99.90
2018-05-01T04:44:43.971Z,99.90
2018-05-01T04:47:17.529Z,99.90
2018-05-01T04:49:50.921Z,99.90
2018-05-01T04:52:24.394Z,99.90
2018-05-01T04:54:57.984Z,99.90
2018-05-01T04:57:31.553Z,99.90
2018-05-01T05:00:05.090Z,99.90
2018-05-01T05:02:38.490Z,99.90
2018-05-01T05:05:08.002Z,99.90
2018-05-01T05:07:41.557Z,99.90
2018-05-01T05:10:15.887Z,99.90
2018-05-01T05:12:50.371Z,99.90
2018-05-01T05:15:24.570Z,99.90
2018-05-01T05:17:58.159Z,99.90
2018-05-01T05:20:31.737Z,99.90
2018-05-01T05:23:06.045Z,99.90
2018-05-01T05:25:39.203Z,99.90
2018-05-01T05:28:12.576Z,99.90
2018-05-01T05:30:46.010Z,99.90
2018-05-01T05:33:19.618Z,99.90
2018-05-01T05:35:53.537Z,99.90
2018-05-01T05:38:26.940Z,99.90
2018-05-01T05:41:00.554Z,99.90
2018-05-01T05:43:34.073Z,99.90
2018-05-01T05:46:07.208Z,99.90
2018-05-01T05:48:40.747Z,99.90
2018-05-01T05:51:14.355Z,99.90
2018-05-01T05:53:47.893Z,99.90
2018-05-01T05:56:21.384Z,99.90
2018-05-01T05:58:55.269Z,99.90
2018-05-01T06:01:30.428Z,99.90
2018-05-01T06:04:00.719Z,99.90
2018-05-01T06:06:34.281Z,99.90
2018-05-01T06:09:08.501Z,99.90
2018-05-01T06:11:42.083Z,99.90
2018-05-01T06:14:15.611Z,99.90
2018-05-01T06:16:49.131Z,99.90
2018-05-01T06:19:22.727Z,99.90
2018-05-01T06:21:57.293Z,99.90
2018-05-01T06:24:31.205Z,99.90
2018-05-01T06:27:05.659Z,99.90
2018-05-01T06:29:39.178Z,99.90
2018-05-01T06:32:12.647Z,99.90
2018-05-01T06:34:46.250Z,99.90
2018-05-01T06:37:15.685Z,99.90
2018-05-01T06:39:49.940Z,99.90
2018-05-01T06:42:23.417Z,99.90
2018-05-01T06:44:57.089Z,99.90
2018-05-01T06:47:30.536Z,99.90
2018-05-01T06:50:04.071Z,99.90
2018-05-01T06:52:37.739Z,99.90
2018-05-01T06:55:11.332Z,99.90
2018-05-01T06:57:44.799Z,99.90
2018-05-01T07:00:18.365Z,99.90
2018-05-01T07:02:51.772Z,99.90
2018-05-01T07:05:26.021Z,99.90
2018-05-01T07:08:00.357Z,99.90
2018-05-01T07:10:33.869Z,99.90
2018-05-01T07:13:07.424Z,99.90
2018-05-01T07:15:40.838Z,99.90
2018-05-01T07:18:14.971Z,99.90
2018-05-01T07:20:48.499Z,99.90
2018-05-01T07:23:22.071Z,99.90
2018-05-01T07:25:55.480Z,99.90
2018-05-01T07:28:29.167Z,99.90
2018-05-01T07:31:04.234Z,99.90
2018-05-01T07:33:37.804Z,99.90
2018-05-01T07:36:11.263Z,99.90
2018-05-01T07:38:44.715Z,99.90
2018-05-01T07:41:18.294Z,99.90
2018-05-01T07:43:51.934Z,99.90
2018-05-01T07:46:25.319Z,99.90
2018-05-01T07:48:58.944Z,99.90
2018-05-01T07:51:32.559Z,99.90
2018-05-01T07:54:06.573Z,99.90
2018-05-01T07:56:40.294Z,99.90
2018-05-01T07:59:13.811Z,99.90
2018-05-01T08:01:47.157Z,99.90
2018-05-01T08:04:20.704Z,99.90
2018-05-01T08:06:53.914Z,99.90
2018-05-01T08:09:27.546Z,99.90
2018-05-01T08:12:01.251Z,99.90
2018-05-01T08:14:34.899Z,99.90
2018-05-01T08:17:08.360Z,99.90
2018-05-01T08:19:42.437Z,99.90
2018-05-01T08:22:16.133Z,99.90
2018-05-01T08:24:49.461Z,99.90
2018-05-01T08:27:23.039Z,99.90
2018-05-01T08:29:56.706Z,99.90
2018-05-01T08:32:30.683Z,99.90
2018-05-01T08:35:04.130Z,99.90
2018-05-01T08:37:37.779Z,99.90
2018-05-01T08:40:11.312Z,99.90
2018-05-01T08:42:40.865Z,99.90
2018-05-01T08:45:15.316Z,99.90
2018-05-01T08:47:48.925Z,99.90
2018-05-01T08:50:22.328Z,99.90
2018-05-01T08:52:56.601Z,99.90
2018-05-01T08:55:30.145Z,99.90
2018-05-01T08:58:03.706Z,99.90
2018-05-01T09:00:37.285Z,99.90
2018-05-01T09:03:05.628Z,99.90
2018-05-01T09:05:39.884Z,99.90
2018-05-01T09:08:14.318Z,99.90
2018-05-01T09:10:47.943Z,99.90
2018-05-01T09:13:21.362Z,99.90
2018-05-01T09:15:55.030Z,99.90
2018-05-01T09:18:24.872Z,99.90
2018-05-01T09:20:58.400Z,99.90
2018-05-01T09:23:31.781Z,99.90
2018-05-01T09:26:03.264Z,99.90
2018-05-01T09:28:36.782Z,99.90
2018-05-01T09:31:10.368Z,99.90
2018-05-01T09:33:38.604Z,99.90
2018-05-01T09:36:12.740Z,99.90
2018-05-01T09:38:47.498Z,99.90
2018-05-01T09:41:21.426Z,99.90
2018-05-01T09:43:54.899Z,99.90
2018-05-01T09:46:28.464Z,99.90
2018-05-01T09:49:02.063Z,99.90
2018-05-01T09:51:35.389Z,99.90
2018-05-01T09:54:10.825Z,99.90
2018-05-01T09:56:45.456Z,99.90
2018-05-01T09:59:20.107Z,99.90
2018-05-01T10:01:54.860Z,99.90
2018-05-01T10:04:31.711Z,99.90
2018-05-01T10:07:06.436Z,99.90
2018-05-01T10:09:41.132Z,99.90
2018-05-01T10:12:15.709Z,99.90
2018-05-01T10:14:50.605Z,99.90
2018-05-01T10:17:25.376Z,99.90
2018-05-01T10:20:00.699Z,99.90
2018-05-01T10:22:35.297Z,99.90
2018-05-01T10:25:10.871Z,99.90
2018-05-01T10:27:45.194Z,99.90
2018-05-01T10:30:19.671Z,99.90
2018-05-01T10:32:54.308Z,99.90
2018-05-01T10:35:28.934Z,99.90
2018-05-01T10:38:03.603Z,99.90
2018-05-01T10:40:38.902Z,99.90
2018-05-01T10:43:13.674Z,99.90
2018-05-01T10:45:48.486Z,99.90
2018-05-01T10:48:23.362Z,99.90
2018-05-01T10:50:57.957Z,99.90
2018-05-01T10:53:32.585Z,99.90
2018-05-01T10:56:07.280Z,99.90
2018-05-01T10:58:42.028Z,99.90
2018-05-01T11:01:16.677Z,99.90
2018-05-01T11:03:51.311Z,99.90
2018-05-01T11:06:25.914Z,99.90
2018-05-01T11:09:01.550Z,99.90
2018-05-01T11:11:36.420Z,99.90
2018-05-01T11:14:11.865Z,99.90
2018-05-01T11:16:46.457Z,99.90
2018-05-01T11:19:22.220Z,99.90
2018-05-01T11:21:56.784Z,99.90
2018-05-01T11:24:31.349Z,99.90
2018-05-01T11:27:05.927Z,99.90
2018-05-01T11:29:40.507Z,99.90
2018-05-01T11:32:15.290Z,99.90
2018-05-01T11:34:50.008Z,99.90
2018-05-01T11:37:24.625Z,99.90
2018-05-01T11:39:59.445Z,99.90
2018-05-01T11:42:28.801Z,99.90
2018-05-01T11:45:04.155Z,99.90
2018-05-01T11:47:39.972Z,99.90
2018-05-01T11:50:09.209Z,99.90
2018-05-01T11:52:43.805Z,99.90
2018-05-01T11:55:19.115Z,99.90
2018-05-01T11:57:55.283Z,99.90
2018-05-01T12:00:30.820Z,99.90
2018-05-01T12:03:05.393Z,99.90
2018-05-01T12:05:40.166Z,98.20
2018-05-01T12:08:15.066Z,99.30
2018-05-01T12:10:49.861Z,97.90
2018-05-01T12:13:24.653Z,97.70
2018-05-01T12:15:59.264Z,98.90
2018-05-01T12:18:34.084Z,99.00
2018-05-01T12:21:09.813Z,97.30
2018-05-01T12:23:44.834Z,97.30
2018-05-01T12:26:19.667Z,95.10
2018-05-01T12:28:54.507Z,95.40
2018-05-01T12:31:29.330Z,93.30
2018-05-01T12:34:03.935Z,92.40
2018-05-01T12:36:39.493Z,88.20
2018-05-01T12:39:14.416Z,88.20
2018-05-01T12:41:48.863Z,90.10
2018-05-01T12:44:23.359Z,86.90
2018-05-01T12:46:57.999Z,84.40
2018-05-01T12:49:33.425Z,83.50
2018-05-01T12:52:04.332Z,83.10
2018-05-01T12:54:38.984Z,83.10
2018-05-01T12:57:13.616Z,74.70
2018-05-01T12:59:48.127Z,71.90
2018-05-01T13:02:22.911Z,71.90
2018-05-01T13:04:54.640Z,71.90
2018-05-01T13:07:29.362Z,73.50
2018-05-01T13:10:03.657Z,74.20
2018-05-01T13:12:38.415Z,75.10
2018-05-01T13:15:12.899Z,73.90
2018-05-01T13:17:48.305Z,66.60
2018-05-01T13:20:24.030Z,67.90
2018-05-01T13:22:59.439Z,65.90
2018-05-01T13:25:33.958Z,65.90
2018-05-01T13:28:08.645Z,62.40
2018-05-01T13:30:43.263Z,61.10
2018-05-01T13:33:18.888Z,63.70
2018-05-01T13:35:53.520Z,63.80
2018-05-01T13:38:28.140Z,66.20
2018-05-01T13:41:02.688Z,65.60
2018-05-01T13:43:37.280Z,65.80
2018-05-01T13:46:12.068Z,64.40
2018-05-01T13:48:47.419Z,64.60
2018-05-01T13:51:22.965Z,64.80
2018-05-01T13:53:58.308Z,65.20
2018-05-01T13:56:30.759Z,67.70
2018-05-01T13:59:05.544Z,67.20
2018-05-01T14:01:40.292Z,68.70
2018-05-01T14:04:14.742Z,67.00
2018-05-01T14:06:49.297Z,67.30
2018-05-01T14:09:24.021Z,68.80
2018-05-01T14:11:58.758Z,68.00
2018-05-01T14:14:34.314Z,67.90
2018-05-01T14:17:08.993Z,67.90
2018-05-01T14:19:43.570Z,68.20
2018-05-01T14:22:18.144Z,67.20
2018-05-01T14:24:48.830Z,65.30
2018-05-01T14:27:23.590Z,67.50
2018-05-01T14:29:58.367Z,65.90
2018-05-01T14:32:32.966Z,64.90
2018-05-01T14:35:08.311Z,65.00
2018-05-01T14:37:43.735Z,64.50
2018-05-01T14:40:18.331Z,64.50
2018-05-01T14:42:53.801Z,61.10
2018-05-01T14:45:23.560Z,60.70
2018-05-01T14:47:59.171Z,60.00
2018-05-01T14:50:33.798Z,59.80
2018-05-01T14:53:08.452Z,61.10
2018-05-01T14:55:43.044Z,57.80
2018-05-01T14:58:17.709Z,56.70
2018-05-01T15:00:52.305Z,56.10
2018-05-01T15:03:27.279Z,55.40
2018-05-01T15:06:01.911Z,55.20
2018-05-01T15:08:36.527Z,57.20
2018-05-01T15:11:11.801Z,58.30
2018-05-01T15:13:46.420Z,58.20
2018-05-01T15:16:21.232Z,57.30
2018-05-01T15:18:55.877Z,57.00
2018-05-01T15:21:30.947Z,56.50
2018-05-01T15:24:05.610Z,55.90
2018-05-01T15:26:41.148Z,56.10
2018-05-01T15:29:16.026Z,56.00
2018-05-01T15:31:50.945Z,56.80
2018-05-01T15:34:25.742Z,55.30
2018-05-01T15:37:00.516Z,56.00
2018-05-01T15:39:30.551Z,56.60
2018-05-01T15:42:05.939Z,56.10
2018-05-01T15:44:40.616Z,56.10
2018-05-01T15:47:15.391Z,56.20
2018-05-01T15:49:49.982Z,55.50
2018-05-01T15:52:24.740Z,55.70
2018-05-01T15:54:59.301Z,55.50
2018-05-01T15:57:34.250Z,56.30
2018-05-01T16:00:08.915Z,54.40
2018-05-01T16:02:44.249Z,53.90
2018-05-01T16:05:18.987Z,53.90
2018-05-01T16:07:54.488Z,54.00
2018-05-01T16:10:29.259Z,54.00
2018-05-01T16:13:04.436Z,54.70
2018-05-01T16:15:33.860Z,55.20
2018-05-01T16:18:08.753Z,55.80
2018-05-01T16:20:43.523Z,57.30
2018-05-01T16:23:18.167Z,56.40
2018-05-01T16:25:53.618Z,57.10
2018-05-01T16:28:29.031Z,57.50
2018-05-01T16:31:04.679Z,56.60
2018-05-01T16:33:39.373Z,56.60
2018-05-01T16:36:14.127Z,58.50
2018-05-01T16:38:48.717Z,58.50
2018-05-01T16:41:24.239Z,59.10
2018-05-01T16:43:59.839Z,57.60
2018-05-01T16:46:35.503Z,57.60
2018-05-01T16:49:11.033Z,57.00
2018-05-01T16:51:45.698Z,56.90
2018-05-01T16:54:21.091Z,58.00
2018-05-01T16:56:55.856Z,58.00
2018-05-01T16:59:30.483Z,58.80
2018-05-01T17:01:59.453Z,59.70
2018-05-01T17:04:29.375Z,62.30
2018-05-01T17:06:58.814Z,61.80
2018-05-01T17:09:27.763Z,63.20
2018-05-01T17:11:56.845Z,63.50
2018-05-01T17:14:25.966Z,64.30
2018-05-01T17:16:55.234Z,64.70
2018-05-01T17:19:24.727Z,66.30
2018-05-01T17:22:00.137Z,68.80
2018-05-01T17:24:34.827Z,68.80
2018-05-01T17:27:09.405Z,70.30
2018-05-01T17:29:47.416Z,71.90
2018-05-01T17:32:22.185Z,73.50
2018-05-01T17:34:56.735Z,74.00
2018-05-01T17:37:31.636Z,74.60
2018-05-01T17:40:06.265Z,75.00
2018-05-01T17:42:41.250Z,74.50
2018-05-01T17:45:16.552Z,76.70
2018-05-01T17:47:51.269Z,76.70
2018-05-01T17:50:26.625Z,76.90
2018-05-01T17:52:56.672Z,76.90
2018-05-01T17:55:31.608Z,78.10
2018-05-01T17:58:06.707Z,78.90
2018-05-01T18:00:42.389Z,79.90
2018-05-01T18:03:17.271Z,79.80
2018-05-01T18:05:52.052Z,80.40
2018-05-01T18:08:26.603Z,81.80
2018-05-01T18:11:01.202Z,82.20
2018-05-01T18:13:35.958Z,81.90
2018-05-01T18:16:10.742Z,80.80
2018-05-01T18:18:45.429Z,79.40
2018-05-01T18:21:20.053Z,80.60
2018-05-01T18:23:54.723Z,81.40
2018-05-01T18:26:29.316Z,81.30
2018-05-01T18:29:06.971Z,82.30
2018-05-01T18:31:42.255Z,85.00
2018-05-01T18:34:17.588Z,85.60
2018-05-01T18:36:52.205Z,85.50
2018-05-01T18:39:30.570Z,87.70
2018-05-01T18:42:05.237Z,88.50
2018-05-01T18:44:40.002Z,89.30
2018-05-01T18:47:14.920Z,89.70
2018-05-01T18:49:50.171Z,90.00
2018-05-01T18:52:24.923Z,88.00
2018-05-01T18:54:59.838Z,89.60
2018-05-01T18:57:34.204Z,90.00
2018-05-01T19:00:08.877Z,90.40
2018-05-01T19:02:43.615Z,90.60
2018-05-01T19:05:18.788Z,91.50
2018-05-01T19:07:54.381Z,92.00
2018-05-01T19:10:29.165Z,92.00
2018-05-01T19:13:04.013Z,91.70
2018-05-01T19:15:40.155Z,92.10
2018-05-01T19:18:14.935Z,92.10
2018-05-01T19:20:50.308Z,92.30
2018-05-01T19:23:25.715Z,92.70
2018-05-01T19:25:56.289Z,92.70
2018-05-01T19:28:26.292Z,94.00
2018-05-01T19:30:57.000Z,94.50
2018-05-01T19:33:26.932Z,94.50
2018-05-01T19:35:55.915Z,95.50
2018-05-01T19:38:25.012Z,96.00
2018-05-01T19:40:56.595Z,97.10
2018-05-01T19:43:25.766Z,97.10
2018-05-01T19:45:55.563Z,97.60
2018-05-01T19:48:24.674Z,98.20
2018-05-01T19:50:54.342Z,99.20
2018-05-01T19:53:23.544Z,99.70
2018-05-01T19:55:52.671Z,99.90
2018-05-01T19:58:22.171Z,99.90
2018-05-01T20:00:51.328Z,99.90
2018-05-01T20:03:20.649Z,99.90
2018-05-01T20:05:50.179Z,99.90
2018-05-01T20:08:19.611Z,99.90
2018-05-01T20:10:48.695Z,99.90
2018-05-01T20:13:19.277Z,99.90
2018-05-01T20:15:49.221Z,99.90
2018-05-01T20:18:20.048Z,99.90
2018-05-01T20:20:49.199Z,99.90
2018-05-01T20:23:19.816Z,99.90
2018-05-01T20:25:49.061Z,99.90
2018-05-01T20:28:23.808Z,99.90
2018-05-01T20:30:59.134Z,99.90
2018-05-01T20:33:34.142Z,99.90
2018-05-01T20:36:09.647Z,99.90
2018-05-01T20:38:44.185Z,99.90
2018-05-01T20:41:18.859Z,99.90
2018-05-01T20:43:48.227Z,99.90
2018-05-01T20:46:23.611Z,99.90
2018-05-01T20:48:58.461Z,99.90
2018-05-01T20:51:33.170Z,99.90
2018-05-01T20:54:08.569Z,99.90
2018-05-01T20:56:43.229Z,99.90
2018-05-01T20:59:17.845Z,99.90
2018-05-01T21:01:53.220Z,99.90
2018-05-01T21:04:27.805Z,99.90
2018-05-01T21:07:03.357Z,99.90
2018-05-01T21:09:38.032Z,99.90
2018-05-01T21:12:12.569Z,99.90
2018-05-01T21:14:47.290Z,99.90
2018-05-01T21:17:22.641Z,99.90
2018-05-01T21:19:57.340Z,99.90
2018-05-01T21:22:31.879Z,99.90
2018-05-01T21:25:06.640Z,99.90
2018-05-01T21:27:41.283Z,99.90
2018-05-01T21:30:15.805Z,99.90
2018-05-01T21:32:50.999Z,99.90
2018-05-01T21:35:25.580Z,99.90
2018-05-01T21:38:00.272Z,99.90
2018-05-01T21:40:35.129Z,99.90
2018-05-01T21:43:09.718Z,99.90
2018-05-01T21:45:44.351Z,99.90
2018-05-01T21:48:18.958Z,99.90
2018-05-01T21:50:54.409Z,99.90
2018-05-01T21:53:28.974Z,99.90
2018-05-01T21:56:03.690Z,99.90
2018-05-01T21:58:38.995Z,99.90
2018-05-01T22:01:13.626Z,99.90
2018-05-01T22:03:48.952Z,99.90
2018-05-01T22:06:23.679Z,99.90
2018-05-01T22:08:58.323Z,99.90
2018-05-01T22:11:33.072Z,99.90
2018-05-01T22:14:07.707Z,99.90
2018-05-01T22:16:42.348Z,99.90
2018-05-01T22:19:17.032Z,99.90
2018-05-01T22:21:51.667Z,99.90
2018-05-01T22:24:26.269Z,99.90
2018-05-01T22:27:00.903Z,99.90
2018-05-01T22:29:36.373Z,99.90
2018-05-01T22:32:10.955Z,99.90
2018-05-01T22:34:45.606Z,99.90
2018-05-01T22:37:20.490Z,99.90
2018-05-01T22:39:55.281Z,99.90
2018-05-01T22:42:29.959Z,99.90
2018-05-01T22:45:05.610Z,99.90
2018-05-01T22:47:40.170Z,99.90
2018-05-01T22:50:14.832Z,99.90
2018-05-01T22:52:50.231Z,99.90
2018-05-01T22:55:24.932Z,99.90
2018-05-01T22:57:59.603Z,99.90
2018-05-01T23:00:33.852Z,99.90
2018-05-01T23:03:09.395Z,99.90
2018-05-01T23:05:43.938Z,99.90
2018-05-01T23:08:18.566Z,99.90
2018-05-01T23:10:53.252Z,99.90
2018-05-01T23:13:27.914Z,99.90
2018-05-01T23:16:02.632Z,99.90
2018-05-01T23:18:37.594Z,99.90
2018-05-01T23:21:12.305Z,99.90
2018-05-01T23:23:46.846Z,99.90
2018-05-01T23:26:21.427Z,99.90
2018-05-01T23:28:56.179Z,99.90
2018-05-01T23:31:31.834Z,99.90
2018-05-01T23:34:06.479Z,99.90
2018-05-01T23:36:41.004Z,99.90
2018-05-01T23:39:16.503Z,99.90
2018-05-01T23:41:51.130Z,99.90
2018-05-01T23:44:25.765Z,99.90
2018-05-01T23:47:00.335Z,99.90
2018-05-01T23:49:35.847Z,99.90
2018-05-01T23:52:10.455Z,99.90
2018-05-01T23:54:45.087Z,99.90
2018-05-01T23:57:19.864Z,99.90
2018-05-01T23:59:55.251Z,99.90
